Time,TemperatureF,DewpointF,PressureIn,WindDirection,WindDirectionDegrees,WindSpeedMPH,WindSpeedGustMPH,Humidity,HourlyPrecipIn,Conditions,Clouds,dailyrainin,SoftwareType,DateUTC
2013-07-17 00:11:00,75.0,72.0,-100.00,South,175,2.0,4.0,89,0.00,,,-99.99,,2013-07-17 05:11:00,
2013-07-17 00:32:00,75.0,72.0,-100.00,South,180,2.0,5.0,89,0.00,,,-99.99,,2013-07-17 05:32:00,
2013-07-17 00:43:00,75.0,72.0,-100.00,South,180,2.0,5.0,89,0.00,,,-99.99,,2013-07-17 05:43:00,
2013-07-17 00:52:00,74.0,72.0,-100.00,ESE,115,0.0,1.0,91,0.00,,,-99.99,,2013-07-17 05:52:00,
2013-07-17 01:01:00,74.0,72.0,-100.00,ESE,115,0.0,1.0,91,0.00,,,-99.99,,2013-07-17 06:01:00,
2013-07-17 01:22:00,74.0,72.0,-100.00,SSE,150,1.0,2.0,93,0.00,,,-99.99,,2013-07-17 06:22:00,
2013-07-17 01:32:00,74.0,72.0,-100.00,SSE,150,1.0,2.0,93,0.00,,,-99.99,,2013-07-17 06:32:00,
2013-07-17 01:43:00,74.0,72.0,-100.00,South,190,2.0,4.0,94,0.00,,,-99.99,,2013-07-17 06:43:00,
2013-07-17 01:52:00,74.0,72.0,-100.00,South,185,2.0,3.0,93,0.00,,,-99.99,,2013-07-17 06:52:00,
2013-07-17 02:01:00,74.0,72.0,-100.00,South,185,2.0,3.0,93,0.00,,,-99.99,,2013-07-17 07:01:00,
2013-07-17 02:11:00,73.0,71.0,-100.00,South,180,2.0,4.0,93,0.00,,,-99.99,,2013-07-17 07:11:00,
2013-07-17 02:22:00,73.0,71.0,-100.00,South,180,2.0,4.0,93,0.00,,,-99.99,,2013-07-17 07:22:00,
2013-07-17 02:32:00,73.0,71.0,-100.00,South,180,2.0,4.0,93,0.00,,,-99.99,,2013-07-17 07:32:00,
2013-07-17 02:42:00,73.0,71.0,-100.00,South,185,2.0,3.0,93,0.00,,,-99.99,,2013-07-17 07:42:00,
2013-07-17 02:52:00,73.0,71.0,-100.00,South,185,2.0,3.0,93,0.00,,,-99.99,,2013-07-17 07:52:00,
2013-07-17 03:01:00,73.0,71.0,-100.00,South,185,2.0,3.0,93,0.00,,,-99.99,,2013-07-17 08:01:00,
2013-07-17 03:11:00,73.0,71.0,-100.00,South,185,2.0,3.0,93,0.00,,,-99.99,,2013-07-17 08:11:00,
2013-07-17 03:22:00,73.0,71.0,-100.00,South,185,2.0,3.0,93,0.00,,,-99.99,,2013-07-17 08:22:00,
2013-07-17 03:43:00,72.0,70.0,-100.00,ESE,120,0.0,1.0,94,0.00,,,-99.99,,2013-07-17 08:43:00,
2013-07-17 03:53:00,72.0,70.0,-100.00,SE,125,0.0,1.0,94,0.00,,,-99.99,,2013-07-17 08:53:00,
2013-07-17 04:12:00,71.0,70.0,-100.00,SE,135,1.0,1.0,94,0.00,,,-99.99,,2013-07-17 09:12:00,
2013-07-17 04:22:00,71.0,70.0,-100.00,SE,135,1.0,1.0,94,0.00,,,-99.99,,2013-07-17 09:22:00,
2013-07-17 04:32:00,71.0,70.0,-100.00,SE,135,1.0,1.0,94,0.00,,,-99.99,,2013-07-17 09:32:00,
2013-07-17 04:43:00,71.0,70.0,-100.00,SSE,160,0.0,1.0,94,0.00,,,-99.99,,2013-07-17 09:43:00,
2013-07-17 04:52:00,71.0,70.0,-100.00,SSE,160,0.0,1.0,94,0.00,,,-99.99,,2013-07-17 09:52:00,
2013-07-17 05:11:00,71.0,69.0,-100.00,SE,135,0.0,-999.0,95,0.00,,,-99.99,,2013-07-17 10:11:00,
2013-07-17 05:22:00,71.0,69.0,-100.00,SE,135,0.0,-999.0,95,0.00,,,-99.99,,2013-07-17 10:22:00,
2013-07-17 05:32:00,71.0,69.0,-100.00,SE,135,0.0,-999.0,95,0.00,,,-99.99,,2013-07-17 10:32:00,
2013-07-17 05:43:00,70.0,69.0,-100.00,SE,145,2.0,2.0,95,0.00,,,-99.99,,2013-07-17 10:43:00,
2013-07-17 05:52:00,70.0,69.0,-100.00,SE,145,2.0,2.0,95,0.00,,,-99.99,,2013-07-17 10:52:00,
2013-07-17 06:11:00,70.0,69.0,-100.00,East,100,0.0,1.0,95,0.00,,,-99.99,,2013-07-17 11:11:00,
2013-07-17 06:32:00,70.0,68.0,-100.00,SSE,160,3.0,3.0,95,0.00,,,-99.99,,2013-07-17 11:32:00,
2013-07-17 06:42:00,70.0,68.0,-100.00,SSE,160,3.0,3.0,95,0.00,,,-99.99,,2013-07-17 11:42:00,
2013-07-17 07:12:00,71.0,70.0,-100.00,SSE,150,1.0,2.0,95,0.00,,,-99.99,,2013-07-17 12:12:00,
2013-07-17 07:32:00,72.0,71.0,-100.00,SSE,155,1.0,3.0,95,0.00,,,-99.99,,2013-07-17 12:32:00,
2013-07-17 07:42:00,72.0,71.0,-100.00,SSE,155,1.0,3.0,95,0.00,,,-99.99,,2013-07-17 12:42:00,
2013-07-17 07:53:00,76.0,75.0,-100.00,SW,230,2.0,3.0,95,0.00,,,-99.99,,2013-07-17 12:53:00,
2013-07-17 08:01:00,76.0,75.0,-100.00,SW,230,2.0,3.0,95,0.00,,,-99.99,,2013-07-17 13:01:00,
2013-07-17 08:43:00,81.0,73.0,-100.00,SW,215,2.0,4.0,77,0.00,,,-99.99,,2013-07-17 13:43:00,
2013-07-17 08:52:00,81.0,73.0,-100.00,SW,215,2.0,4.0,77,0.00,,,-99.99,,2013-07-17 13:52:00,
2013-07-17 09:02:00,81.0,73.0,-100.00,SW,215,2.0,4.0,77,0.00,,,-99.99,,2013-07-17 14:02:00,
2013-07-17 09:11:00,81.0,73.0,-100.00,SW,215,2.0,4.0,77,0.00,,,-99.99,,2013-07-17 14:11:00,
2013-07-17 09:32:00,85.0,73.0,-100.00,WSW,250,1.0,4.0,68,0.00,,,-99.99,,2013-07-17 14:32:00,
2013-07-17 09:43:00,85.0,73.0,-100.00,WSW,250,1.0,4.0,68,0.00,,,-99.99,,2013-07-17 14:43:00,
2013-07-17 09:52:00,86.0,72.0,-100.00,SW,235,4.0,4.0,63,0.00,,,-99.99,,2013-07-17 14:52:00,
2013-07-17 10:12:00,87.0,73.0,-100.00,SW,230,2.0,4.0,64,0.00,,,-99.99,,2013-07-17 15:12:00,
2013-07-17 10:22:00,87.0,73.0,-100.00,SW,230,2.0,4.0,64,0.00,,,-99.99,,2013-07-17 15:22:00,
2013-07-17 10:32:00,87.0,73.0,-100.00,SW,230,2.0,4.0,64,0.00,,,-99.99,,2013-07-17 15:32:00,
2013-07-17 10:42:00,87.0,73.0,-100.00,SW,230,2.0,4.0,64,0.00,,,-99.99,,2013-07-17 15:42:00,
2013-07-17 11:43:00,91.0,70.0,-100.00,West,275,2.0,7.0,50,0.00,,,-99.99,,2013-07-17 16:43:00,
2013-07-17 12:02:00,90.0,69.0,-100.00,WNW,295,6.0,10.0,51,0.00,,,-99.99,,2013-07-17 17:02:00,
2013-07-17 12:11:00,89.0,69.0,-100.00,West,265,5.0,7.0,52,0.00,,,-99.99,,2013-07-17 17:11:00,
2013-07-17 12:32:00,91.0,69.0,-100.00,WSW,255,1.0,6.0,48,0.00,,,-99.99,,2013-07-17 17:32:00,
2013-07-17 12:43:00,91.0,69.0,-100.00,WSW,255,1.0,6.0,48,0.00,,,-99.99,,2013-07-17 17:43:00,
2013-07-17 12:52:00,90.0,67.0,-100.00,WNW,295,4.0,7.0,48,0.00,,,-99.99,,2013-07-17 17:52:00,
2013-07-17 13:01:00,90.0,67.0,-100.00,WNW,295,4.0,7.0,48,0.00,,,-99.99,,2013-07-17 18:01:00,
2013-07-17 13:32:00,92.0,69.0,-100.00,NW,315,6.0,9.0,47,0.00,,,-99.99,,2013-07-17 18:32:00,
2013-07-17 13:43:00,92.0,69.0,-100.00,SW,235,6.0,10.0,48,0.00,,,-99.99,,2013-07-17 18:43:00,
2013-07-17 13:52:00,92.0,69.0,-100.00,SSW,210,4.0,9.0,46,0.00,,,-99.99,,2013-07-17 18:52:00,
2013-07-17 14:01:00,92.0,69.0,-100.00,SSW,210,4.0,9.0,46,0.00,,,-99.99,,2013-07-17 19:01:00,
2013-07-17 14:11:00,93.0,70.0,-100.00,SW,235,6.0,10.0,47,0.00,,,-99.99,,2013-07-17 19:11:00,
2013-07-17 14:32:00,92.0,68.0,-100.00,SW,230,4.0,7.0,45,0.00,,,-99.99,,2013-07-17 19:32:00,
2013-07-17 14:43:00,92.0,68.0,-100.00,SSW,195,6.0,8.0,45,0.00,,,-99.99,,2013-07-17 19:43:00,
2013-07-17 14:53:00,93.0,68.0,-100.00,South,170,3.0,9.0,44,0.00,,,-99.99,,2013-07-17 19:53:00,
2013-07-17 15:02:00,93.0,68.0,-100.00,South,170,3.0,9.0,44,0.00,,,-99.99,,2013-07-17 20:02:00,
2013-07-17 15:11:00,93.0,68.0,-100.00,South,170,3.0,9.0,44,0.00,,,-99.99,,2013-07-17 20:11:00,
2013-07-17 15:33:00,94.0,68.0,-100.00,SSW,210,6.0,7.0,43,0.00,,,-99.99,,2013-07-17 20:33:00,
2013-07-17 15:43:00,94.0,68.0,-100.00,SSW,210,6.0,7.0,43,0.00,,,-99.99,,2013-07-17 20:43:00,
2013-07-17 15:53:00,94.0,68.0,-100.00,SSW,210,6.0,7.0,43,0.00,,,-99.99,,2013-07-17 20:53:00,
2013-07-17 16:12:00,93.0,68.0,-100.00,WSW,245,4.0,8.0,43,0.00,,,-99.99,,2013-07-17 21:12:00,
2013-07-17 16:22:00,93.0,68.0,-100.00,WSW,245,4.0,8.0,43,0.00,,,-99.99,,2013-07-17 21:22:00,
2013-07-17 16:32:00,93.0,68.0,-100.00,WSW,245,4.0,8.0,43,0.00,,,-99.99,,2013-07-17 21:32:00,
2013-07-17 16:42:00,94.0,67.0,-100.00,SE,135,4.0,7.0,41,0.00,,,-99.99,,2013-07-17 21:42:00,
2013-07-17 16:53:00,94.0,67.0,-100.00,SE,135,4.0,7.0,41,0.00,,,-99.99,,2013-07-17 21:53:00,
2013-07-17 17:01:00,94.0,67.0,-100.00,SE,135,4.0,7.0,41,0.00,,,-99.99,,2013-07-17 22:01:00,
2013-07-17 17:22:00,92.0,68.0,-100.00,SSW,210,6.0,11.0,45,0.00,,,-99.99,,2013-07-17 22:22:00,
2013-07-17 17:32:00,92.0,68.0,-100.00,SSW,210,6.0,11.0,45,0.00,,,-99.99,,2013-07-17 22:32:00,
2013-07-17 17:43:00,91.0,68.0,-100.00,SW,235,6.0,8.0,46,0.00,,,-99.99,,2013-07-17 22:43:00,
2013-07-17 18:11:00,90.0,68.0,-100.00,SSW,195,6.0,11.0,48,0.00,,,-99.99,,2013-07-17 23:11:00,
2013-07-17 18:22:00,90.0,68.0,-100.00,SSW,195,6.0,11.0,48,0.00,,,-99.99,,2013-07-17 23:22:00,
2013-07-17 18:32:00,90.0,68.0,-100.00,SSW,195,6.0,11.0,48,0.00,,,-99.99,,2013-07-17 23:32:00,
2013-07-17 18:43:00,90.0,68.0,-100.00,SSW,195,6.0,11.0,48,0.00,,,-99.99,,2013-07-17 23:43:00,
2013-07-17 19:52:00,86.0,72.0,-100.00,SW,215,1.0,3.0,62,0.00,,,-99.99,,2013-07-18 00:52:00,
2013-07-17 20:32:00,83.0,74.0,-100.00,South,180,1.0,1.0,76,0.00,,,-99.99,,2013-07-18 01:32:00,
2013-07-17 21:11:00,81.0,75.0,-100.00,SSE,165,1.0,4.0,81,0.00,,,-99.99,,2013-07-18 02:11:00,
2013-07-17 21:22:00,81.0,75.0,-100.00,SSE,165,1.0,4.0,81,0.00,,,-99.99,,2013-07-18 02:22:00,
2013-07-17 21:32:00,81.0,75.0,-100.00,SSE,165,1.0,4.0,81,0.00,,,-99.99,,2013-07-18 02:32:00,
2013-07-17 21:43:00,81.0,75.0,-100.00,SSE,165,1.0,4.0,81,0.00,,,-99.99,,2013-07-18 02:43:00,
2013-07-17 21:52:00,78.0,73.0,-100.00,SSW,195,0.0,1.0,85,0.00,,,-99.99,,2013-07-18 02:52:00,
2013-07-17 22:11:00,78.0,73.0,-100.00,South,185,2.0,4.0,86,0.00,,,-99.99,,2013-07-18 03:11:00,
2013-07-17 22:22:00,78.0,73.0,-100.00,South,185,2.0,4.0,86,0.00,,,-99.99,,2013-07-18 03:22:00,
2013-07-17 22:32:00,78.0,73.0,-100.00,South,185,2.0,4.0,86,0.00,,,-99.99,,2013-07-18 03:32:00,
2013-07-17 22:43:00,78.0,73.0,-100.00,South,185,3.0,4.0,86,0.00,,,-99.99,,2013-07-18 03:43:00,
2013-07-17 22:52:00,78.0,73.0,-100.00,South,190,3.0,5.0,86,0.00,,,-99.99,,2013-07-18 03:52:00,
2013-07-17 23:02:00,78.0,73.0,-100.00,South,190,3.0,5.0,86,0.00,,,-99.99,,2013-07-18 04:02:00,
2013-07-17 23:22:00,77.0,73.0,-100.00,South,185,3.0,4.0,87,0.00,,,-99.99,,2013-07-18 04:22:00,
2013-07-17 23:32:00,77.0,73.0,-100.00,South,185,3.0,4.0,87,0.00,,,-99.99,,2013-07-18 04:32:00,
2013-07-17 23:43:00,76.0,73.0,-100.00,South,190,3.0,5.0,90,0.00,,,-99.99,,2013-07-18 04:43:00,
2013-07-17 23:52:00,76.0,73.0,-100.00,SSW,195,4.0,5.0,90,0.00,,,-99.99,,2013-07-18 04:52:00,